MST,Max TemperatureF,Mean TemperatureF,Min TemperatureF,Max Dew PointF,MeanDew PointF,Min DewpointF,Max Humidity, Mean Humidity, Min Humidity, Max Sea Level PressureIn, Mean Sea Level PressureIn, Min Sea Level PressureIn, Max VisibilityMiles, Mean VisibilityMiles, Min VisibilityMiles, Max Wind SpeedMPH, Mean Wind SpeedMPH, Max Gust SpeedMPH,PrecipitationIn, CloudCover, Events, WindDirDegrees
2012-11-1,41,36,30,10,9,3,44,36,21,30.57,30.47,30.38,,,,32,18,40,0.00,0,,251
2012-11-2,32,30,28,10,7,3,44,38,32,30.45,30.39,30.34,,,,41,31,46,0.00,0,,259
2012-11-3,37,30,24,10,8,3,51,39,28,30.53,30.48,30.44,,,,36,19,33,0.00,0,,252
2012-11-4,35,30,26,19,13,10,69,52,41,30.64,30.57,30.51,,,,31,22,40,0.00,0,,255
2012-11-5,37,30,23,23,21,16,93,69,51,30.65,30.61,30.57,,,,36,17,43,0.00,0,,247
2012-11-6,44,35,26,21,17,12,80,52,29,30.68,30.64,30.62,,,,26,16,36,0.00,0,,245
2012-11-7,42,36,30,16,11,0,51,38,18,30.63,30.50,30.40,,,,43,28,55,0.00,0,,259
2012-11-8,41,36,30,16,12,9,51,43,29,30.40,30.31,30.20,,,,36,27,41,0.00,1,,227
2012-11-9,33,28,23,28,22,10,100,78,41,30.19,30.07,29.90,,,,41,30,56,0.00,7,Thunderstorm,223
2012-11-10,23,13,3,23,12,0,100,91,79,29.89,29.73,29.64,,,,50,40,56,0.00,8,,225
2012-11-11,3,2,0,0,-2,-4,85,84,78,30.17,29.93,29.73,,,,,,,0.00,8,,-1
2012-11-12,21,10,0,9,2,-6,85,70,50,30.46,30.36,30.08,,,,31,22,37,0.00,2,,240
2012-11-13,24,18,12,14,12,7,85,73,64,30.47,30.42,30.36,,,,40,31,36,0.00,0,,264
2012-11-14,30,24,17,10,1,-4,73,39,23,30.48,30.44,30.41,,,,43,36,54,0.00,0,,270
2012-11-15,32,26,21,10,5,-4,59,44,33,30.55,30.49,30.41,,,,31,20,39,0.00,0,,253
2012-11-16,33,27,21,14,8,1,59,46,29,30.53,30.47,30.42,,,,34,22,40,0.00,1,,243
2012-11-17,35,29,23,21,17,14,80,63,44,30.46,30.41,30.37,,,,26,22,31,0.00,1,,235
2012-11-18,30,26,21,23,20,18,100,82,60,30.42,30.34,30.29,,,,47,28,56,0.00,6,,255
2012-11-19,32,26,19,21,17,12,93,72,48,30.56,30.50,30.41,,,,34,26,40,0.00,1,,247
2012-11-20,35,28,21,18,9,5,80,43,30,30.56,30.54,30.51,,,,33,23,26,0.00,0,,249
2012-11-21,37,32,26,10,4,-2,51,34,20,30.51,30.42,30.33,,,,40,31,48,0.00,0,,263
2012-11-22,33,28,23,16,10,1,68,51,31,30.61,30.45,30.30,,,,45,34,52,0.00,0,,253
2012-11-23,35,27,19,12,10,9,74,50,33,30.69,30.64,30.60,,,,26,20,31,0.00,0,,250
2012-11-24,33,27,21,10,7,3,63,43,28,30.62,30.47,30.35,,,,47,32,55,0.00,0,,261
2012-11-25,32,26,21,9,5,1,58,42,30,30.35,30.24,30.16,,,,48,36,60,0.00,0,,261
2012-11-26,30,24,17,10,2,-13,68,44,22,30.44,30.35,30.21,,,,41,27,43,0.00,0,,255
2012-11-27,32,24,17,3,-6,-17,40,28,16,30.55,30.49,30.40,,,,48,37,51,0.00,0,,256
2012-11-28,30,26,23,18,4,-6,80,42,26,30.55,30.47,30.41,,,,48,38,53,0.00,0,,267
2012-11-29,32,26,21,19,18,14,93,74,48,30.40,30.37,30.34,,,,47,38,56,0.00,2,,260
2012-11-30,33,27,21,21,17,10,100,69,38,30.39,30.33,30.28,,,,54,40,67,0.00,1,,267